sensor_id;sensor_type;location;lat;lon;timestamp;temperature;humidity
15554;DHT22;7878;44.632;10.942;2022-12-24T00:00:14;11.40;99.90
15554;DHT22;7878;44.632;10.942;2022-12-24T00:02:39;11.40;99.90
15554;DHT22;7878;44.632;10.942;2022-12-24T00:05:05;11.50;99.90
15554;DHT22;7878;44.632;10.942;2022-12-24T00:07:31;11.50;99.90
15554;DHT22;7878;44.632;10.942;2022-12-24T00:09:57;11.50;99.90
15554;DHT22;7878;44.632;10.942;2022-12-24T00:12:22;11.40;99.90
15554;DHT22;7878;44.632;10.942;2022-12-24T00:14:48;11.40;99.90
15554;DHT22;7878;44.632;10.942;2022-12-24T00:17:14;11.40;99.90
15554;DHT22;7878;44.632;10.942;2022-12-24T00:19:39;11.40;99.90
15554;DHT22;7878;44.632;10.942;2022-12-24T00:22:05;11.50;99.90
15554;DHT22;7878;44.632;10.942;2022-12-24T00:24:31;11.50;99.90
15554;DHT22;7878;44.632;10.942;2022-12-24T00:26:56;11.50;99.90
15554;DHT22;7878;44.632;10.942;2022-12-24T00:29:22;11.60;99.90
15554;DHT22;7878;44.632;10.942;2022-12-24T00:31:47;11.60;99.90
15554;DHT22;7878;44.632;10.942;2022-12-24T00:34:13;11.60;99.90
15554;DHT22;7878;44.632;10.942;2022-12-24T00:36:39;11.60;99.90
15554;DHT22;7878;44.632;10.942;2022-12-24T00:39:04;11.60;99.90
15554;DHT22;7878;44.632;10.942;2022-12-24T00:41:30;11.60;99.90
15554;DHT22;7878;44.632;10.942;2022-12-24T00:44:04;11.60;99.90
15554;DHT22;7878;44.632;10.942;2022-12-24T00:46:32;11.70;99.90
15554;DHT22;7878;44.632;10.942;2022-12-24T00:48:58;11.70;99.90
15554;DHT22;7878;44.632;10.942;2022-12-24T00:51:25;11.70;99.90
15554;DHT22;7878;44.632;10.942;2022-12-24T00:53:51;11.60;99.90
15554;DHT22;7878;44.632;10.942;2022-12-24T00:56:17;11.60;99.90
15554;DHT22;7878;44.632;10.942;2022-12-24T00:58:43;11.60;99.90
15554;DHT22;7878;44.632;10.942;2022-12-24T01:01:09;11.60;99.90
15554;DHT22;7878;44.632;10.942;2022-12-24T01:03:35;11.60;99.90
15554;DHT22;7878;44.632;10.942;2022-12-24T01:06:06;11.60;99.90
15554;DHT22;7878;44.632;10.942;2022-12-24T01:08:33;11.60;99.90
15554;DHT22;7878;44.632;10.942;2022-12-24T01:10:59;11.60;99.90
15554;DHT22;7878;44.632;10.942;2022-12-24T01:13:25;11.60;99.90
15554;DHT22;7878;44.632;10.942;2022-12-24T01:15:51;11.70;99.90
15554;DHT22;7878;44.632;10.942;2022-12-24T01:18:17;11.70;99.90
15554;DHT22;7878;44.632;10.942;2022-12-24T01:20:42;11.70;99.90
15554;DHT22;7878;44.632;10.942;2022-12-24T01:23:08;11.80;99.90
15554;DHT22;7878;44.632;10.942;2022-12-24T01:25:35;11.80;99.90
15554;DHT22;7878;44.632;10.942;2022-12-24T01:28:01;11.80;99.90
15554;DHT22;7878;44.632;10.942;2022-12-24T01:30:27;11.80;99.90
15554;DHT22;7878;44.632;10.942;2022-12-24T01:32:52;11.70;99.90
15554;DHT22;7878;44.632;10.942;2022-12-24T01:35:18;11.70;99.90
15554;DHT22;7878;44.632;10.942;2022-12-24T01:37:44;11.70;99.90
15554;DHT22;7878;44.632;10.942;2022-12-24T01:40:14;11.70;99.90
15554;DHT22;7878;44.632;10.942;2022-12-24T01:42:59;11.70;99.90
15554;DHT22;7878;44.632;10.942;2022-12-24T01:52:00;11.70;99.90
15554;DHT22;7878;44.632;10.942;2022-12-24T01:54:06;11.80;99.90
15554;DHT22;7878;44.632;10.942;2022-12-24T01:56:35;11.80;99.90
15554;DHT22;7878;44.632;10.942;2022-12-24T01:59:09;11.80;99.90
15554;DHT22;7878;44.632;10.942;2022-12-24T02:01:38;11.80;99.90
15554;DHT22;7878;44.632;10.942;2022-12-24T02:04:14;11.80;99.90
15554;DHT22;7878;44.632;10.942;2022-12-24T02:06:42;11.80;99.90
15554;DHT22;7878;44.632;10.942;2022-12-24T02:09:08;11.90;99.90
15554;DHT22;7878;44.632;10.942;2022-12-24T02:11:36;11.80;99.90
15554;DHT22;7878;44.632;10.942;2022-12-24T02:14:03;11.80;99.90
15554;DHT22;7878;44.632;10.942;2022-12-24T02:28:00;11.80;99.90
15554;DHT22;7878;44.632;10.942;2022-12-24T02:30:40;11.80;99.90
15554;DHT22;7878;44.632;10.942;2022-12-24T02:36:22;11.70;99.90
15554;DHT22;7878;44.632;10.942;2022-12-24T02:39:05;11.60;99.90
15554;DHT22;7878;44.632;10.942;2022-12-24T02:41:36;11.60;99.90
15554;DHT22;7878;44.632;10.942;2022-12-24T02:44:25;11.60;99.90
15554;DHT22;7878;44.632;10.942;2022-12-24T02:46:51;11.50;99.90
15554;DHT22;7878;44.632;10.942;2022-12-24T02:49:17;11.50;99.90
15554;DHT22;7878;44.632;10.942;2022-12-24T02:51:43;11.40;99.90
15554;DHT22;7878;44.632;10.942;2022-12-24T02:54:09;11.30;99.90
15554;DHT22;7878;44.632;10.942;2022-12-24T02:56:40;11.30;99.90
15554;DHT22;7878;44.632;10.942;2022-12-24T02:59:46;11.30;99.90
15554;DHT22;7878;44.632;10.942;2022-12-24T03:02:49;11.40;99.90
15554;DHT22;7878;44.632;10.942;2022-12-24T03:05:31;11.40;99.90
15554;DHT22;7878;44.632;10.942;2022-12-24T03:10:56;11.40;99.90
15554;DHT22;7878;44.632;10.942;2022-12-24T03:13:26;11.50;99.90
15554;DHT22;7878;44.632;10.942;2022-12-24T03:15:52;11.40;99.90
15554;DHT22;7878;44.632;10.942;2022-12-24T03:18:22;11.40;99.90
15554;DHT22;7878;44.632;10.942;2022-12-24T03:21:22;11.40;99.90
15554;DHT22;7878;44.632;10.942;2022-12-24T03:23:48;11.40;99.90
15554;DHT22;7878;44.632;10.942;2022-12-24T03:26:16;11.40;99.90
15554;DHT22;7878;44.632;10.942;2022-12-24T03:28:43;11.50;99.90
15554;DHT22;7878;44.632;10.942;2022-12-24T03:31:10;11.50;99.90
15554;DHT22;7878;44.632;10.942;2022-12-24T03:33:36;11.40;99.90
15554;DHT22;7878;44.632;10.942;2022-12-24T03:36:02;11.50;99.90
15554;DHT22;7878;44.632;10.942;2022-12-24T03:38:28;11.50;99.90
15554;DHT22;7878;44.632;10.942;2022-12-24T03:40:54;11.40;99.90
15554;DHT22;7878;44.632;10.942;2022-12-24T03:43:20;11.40;99.90
15554;DHT22;7878;44.632;10.942;2022-12-24T03:45:45;11.50;99.90
15554;DHT22;7878;44.632;10.942;2022-12-24T03:48:11;11.50;99.90
15554;DHT22;7878;44.632;10.942;2022-12-24T03:50:36;11.50;99.90
15554;DHT22;7878;44.632;10.942;2022-12-24T03:53:02;11.50;99.90
15554;DHT22;7878;44.632;10.942;2022-12-24T03:55:28;11.50;99.90
15554;DHT22;7878;44.632;10.942;2022-12-24T03:57:53;11.60;99.90
15554;DHT22;7878;44.632;10.942;2022-12-24T04:00:19;11.60;99.90
15554;DHT22;7878;44.632;10.942;2022-12-24T04:02:45;11.60;99.90
15554;DHT22;7878;44.632;10.942;2022-12-24T04:05:16;11.60;99.90
15554;DHT22;7878;44.632;10.942;2022-12-24T04:07:42;11.60;99.90
15554;DHT22;7878;44.632;10.942;2022-12-24T04:10:08;11.60;99.90
15554;DHT22;7878;44.632;10.942;2022-12-24T04:12:35;11.60;99.90
15554;DHT22;7878;44.632;10.942;2022-12-24T04:15:01;11.50;99.90
15554;DHT22;7878;44.632;10.942;2022-12-24T04:17:26;11.50;99.90
15554;DHT22;7878;44.632;10.942;2022-12-24T04:19:52;11.50;99.90
15554;DHT22;7878;44.632;10.942;2022-12-24T04:22:18;11.50;99.90
15554;DHT22;7878;44.632;10.942;2022-12-24T04:24:43;11.50;99.90
15554;DHT22;7878;44.632;10.942;2022-12-24T04:27:09;11.50;99.90
15554;DHT22;7878;44.632;10.942;2022-12-24T04:29:35;11.50;99.90
15554;DHT22;7878;44.632;10.942;2022-12-24T04:32:00;11.50;99.90
15554;DHT22;7878;44.632;10.942;2022-12-24T04:34:26;11.50;99.90
15554;DHT22;7878;44.632;10.942;2022-12-24T04:36:52;11.50;99.90
15554;DHT22;7878;44.632;10.942;2022-12-24T04:39:17;11.50;99.90
15554;DHT22;7878;44.632;10.942;2022-12-24T04:41:43;11.50;99.90
15554;DHT22;7878;44.632;10.942;2022-12-24T04:44:09;11.50;99.90
15554;DHT22;7878;44.632;10.942;2022-12-24T04:46:35;11.50;99.90
15554;DHT22;7878;44.632;10.942;2022-12-24T04:49:01;11.50;99.90
15554;DHT22;7878;44.632;10.942;2022-12-24T04:51:27;11.50;99.90
15554;DHT22;7878;44.632;10.942;2022-12-24T04:53:53;11.50;99.90
15554;DHT22;7878;44.632;10.942;2022-12-24T04:56:21;11.40;99.90
15554;DHT22;7878;44.632;10.942;2022-12-24T04:58:48;11.40;99.90
15554;DHT22;7878;44.632;10.942;2022-12-24T05:01:19;11.30;99.90
15554;DHT22;7878;44.632;10.942;2022-12-24T05:03:46;11.30;99.90
15554;DHT22;7878;44.632;10.942;2022-12-24T05:06:14;11.30;99.90
15554;DHT22;7878;44.632;10.942;2022-12-24T05:08:40;11.30;99.90
15554;DHT22;7878;44.632;10.942;2022-12-24T05:11:06;11.30;99.90
15554;DHT22;7878;44.632;10.942;2022-12-24T05:13:32;11.30;99.90
15554;DHT22;7878;44.632;10.942;2022-12-24T05:15:58;11.40;99.90
15554;DHT22;7878;44.632;10.942;2022-12-24T05:18:24;11.40;99.90
15554;DHT22;7878;44.632;10.942;2022-12-24T05:20:50;11.40;99.90
15554;DHT22;7878;44.632;10.942;2022-12-24T05:26:00;11.30;99.90
15554;DHT22;7878;44.632;10.942;2022-12-24T05:28:45;11.20;99.90
15554;DHT22;7878;44.632;10.942;2022-12-24T05:31:10;11.20;99.90
15554;DHT22;7878;44.632;10.942;2022-12-24T05:33:36;11.20;99.90
15554;DHT22;7878;44.632;10.942;2022-12-24T05:36:02;11.20;99.90
15554;DHT22;7878;44.632;10.942;2022-12-24T05:38:27;11.30;99.90
15554;DHT22;7878;44.632;10.942;2022-12-24T05:40:53;11.30;99.90
15554;DHT22;7878;44.632;10.942;2022-12-24T05:43:19;11.30;99.90
15554;DHT22;7878;44.632;10.942;2022-12-24T05:45:44;11.30;99.90
15554;DHT22;7878;44.632;10.942;2022-12-24T05:48:10;11.30;99.90
15554;DHT22;7878;44.632;10.942;2022-12-24T05:50:38;11.30;99.90
15554;DHT22;7878;44.632;10.942;2022-12-24T05:53:04;11.20;99.90
15554;DHT22;7878;44.632;10.942;2022-12-24T05:55:30;11.20;99.90
15554;DHT22;7878;44.632;10.942;2022-12-24T05:57:56;11.20;99.90
15554;DHT22;7878;44.632;10.942;2022-12-24T06:00:21;11.20;99.90
15554;DHT22;7878;44.632;10.942;2022-12-24T06:02:47;11.20;99.90
15554;DHT22;7878;44.632;10.942;2022-12-24T06:05:13;11.30;99.90
15554;DHT22;7878;44.632;10.942;2022-12-24T06:07:38;11.30;99.90
15554;DHT22;7878;44.632;10.942;2022-12-24T06:10:05;11.30;99.90
15554;DHT22;7878;44.632;10.942;2022-12-24T06:12:31;11.30;99.90
15554;DHT22;7878;44.632;10.942;2022-12-24T06:14:56;11.40;99.90
15554;DHT22;7878;44.632;10.942;2022-12-24T06:17:22;11.40;99.90
15554;DHT22;7878;44.632;10.942;2022-12-24T06:19:48;11.50;99.90
15554;DHT22;7878;44.632;10.942;2022-12-24T06:22:13;11.50;99.90
15554;DHT22;7878;44.632;10.942;2022-12-24T06:24:39;11.50;99.90
15554;DHT22;7878;44.632;10.942;2022-12-24T06:27:05;11.50;99.90
15554;DHT22;7878;44.632;10.942;2022-12-24T06:29:31;11.50;99.90
15554;DHT22;7878;44.632;10.942;2022-12-24T06:31:56;11.50;99.90
15554;DHT22;7878;44.632;10.942;2022-12-24T06:34:22;11.50;99.90
15554;DHT22;7878;44.632;10.942;2022-12-24T06:36:48;11.50;99.90
15554;DHT22;7878;44.632;10.942;2022-12-24T06:39:13;11.50;99.90
15554;DHT22;7878;44.632;10.942;2022-12-24T06:41:39;11.50;99.90
15554;DHT22;7878;44.632;10.942;2022-12-24T06:44:04;11.60;99.90
15554;DHT22;7878;44.632;10.942;2022-12-24T06:46:30;11.60;99.90
15554;DHT22;7878;44.632;10.942;2022-12-24T06:48:56;11.60;99.90
15554;DHT22;7878;44.632;10.942;2022-12-24T06:51:21;11.60;99.90
15554;DHT22;7878;44.632;10.942;2022-12-24T06:53:50;11.50;99.90
15554;DHT22;7878;44.632;10.942;2022-12-24T06:56:16;11.50;99.90
15554;DHT22;7878;44.632;10.942;2022-12-24T06:58:42;11.60;99.90
15554;DHT22;7878;44.632;10.942;2022-12-24T07:01:11;11.60;99.90
15554;DHT22;7878;44.632;10.942;2022-12-24T07:03:38;11.70;99.90
15554;DHT22;7878;44.632;10.942;2022-12-24T07:06:04;11.70;99.90
15554;DHT22;7878;44.632;10.942;2022-12-24T07:08:30;11.70;99.90
15554;DHT22;7878;44.632;10.942;2022-12-24T07:11:00;11.70;99.90
15554;DHT22;7878;44.632;10.942;2022-12-24T07:13:26;11.70;99.90
15554;DHT22;7878;44.632;10.942;2022-12-24T07:15:59;11.70;99.90
15554;DHT22;7878;44.632;10.942;2022-12-24T07:18:25;11.70;99.90
15554;DHT22;7878;44.632;10.942;2022-12-24T07:20:51;11.70;99.90
15554;DHT22;7878;44.632;10.942;2022-12-24T07:23:17;11.70;99.90
15554;DHT22;7878;44.632;10.942;2022-12-24T07:25:42;11.70;99.90
15554;DHT22;7878;44.632;10.942;2022-12-24T07:28:08;11.70;99.90
15554;DHT22;7878;44.632;10.942;2022-12-24T07:30:34;11.80;99.90
15554;DHT22;7878;44.632;10.942;2022-12-24T07:33:00;11.70;99.90
15554;DHT22;7878;44.632;10.942;2022-12-24T07:35:25;11.70;99.90
15554;DHT22;7878;44.632;10.942;2022-12-24T07:37:51;11.80;99.90
15554;DHT22;7878;44.632;10.942;2022-12-24T07:40:16;11.80;99.90
15554;DHT22;7878;44.632;10.942;2022-12-24T07:42:42;11.80;99.90
15554;DHT22;7878;44.632;10.942;2022-12-24T07:45:08;11.80;99.90
15554;DHT22;7878;44.632;10.942;2022-12-24T07:47:34;11.80;99.90
15554;DHT22;7878;44.632;10.942;2022-12-24T07:50:00;11.80;99.90
15554;DHT22;7878;44.632;10.942;2022-12-24T07:52:25;11.80;99.90
15554;DHT22;7878;44.632;10.942;2022-12-24T07:54:51;11.80;99.90
15554;DHT22;7878;44.632;10.942;2022-12-24T07:57:17;11.80;99.90
15554;DHT22;7878;44.632;10.942;2022-12-24T07:59:42;11.80;99.90
15554;DHT22;7878;44.632;10.942;2022-12-24T08:02:11;11.80;99.90
15554;DHT22;7878;44.632;10.942;2022-12-24T08:04:37;11.80;99.90
15554;DHT22;7878;44.632;10.942;2022-12-24T08:07:04;11.80;99.90
15554;DHT22;7878;44.632;10.942;2022-12-24T08:09:34;11.80;99.90
15554;DHT22;7878;44.632;10.942;2022-12-24T08:12:00;11.80;99.90
15554;DHT22;7878;44.632;10.942;2022-12-24T08:14:28;11.80;99.90
15554;DHT22;7878;44.632;10.942;2022-12-24T08:16:54;11.80;99.90
15554;DHT22;7878;44.632;10.942;2022-12-24T08:19:20;11.80;99.90
15554;DHT22;7878;44.632;10.942;2022-12-24T08:21:45;11.90;99.90
15554;DHT22;7878;44.632;10.942;2022-12-24T08:24:11;11.90;99.90
15554;DHT22;7878;44.632;10.942;2022-12-24T08:26:37;11.80;99.90
15554;DHT22;7878;44.632;10.942;2022-12-24T08:29:03;11.80;99.90
15554;DHT22;7878;44.632;10.942;2022-12-24T08:31:29;11.90;99.90
15554;DHT22;7878;44.632;10.942;2022-12-24T08:33:55;11.90;99.90
15554;DHT22;7878;44.632;10.942;2022-12-24T08:36:21;11.90;99.90
15554;DHT22;7878;44.632;10.942;2022-12-24T08:38:46;12.00;99.90
15554;DHT22;7878;44.632;10.942;2022-12-24T08:41:12;12.00;99.90
15554;DHT22;7878;44.632;10.942;2022-12-24T08:43:38;11.90;99.90
15554;DHT22;7878;44.632;10.942;2022-12-24T08:46:04;12.00;99.90
15554;DHT22;7878;44.632;10.942;2022-12-24T08:48:32;12.00;99.90
15554;DHT22;7878;44.632;10.942;2022-12-24T08:50:57;12.00;99.90
15554;DHT22;7878;44.632;10.942;2022-12-24T08:53:23;12.10;99.90
15554;DHT22;7878;44.632;10.942;2022-12-24T08:55:49;12.10;99.90
15554;DHT22;7878;44.632;10.942;2022-12-24T08:58:14;12.20;99.90
15554;DHT22;7878;44.632;10.942;2022-12-24T09:00:40;12.20;99.90
15554;DHT22;7878;44.632;10.942;2022-12-24T09:03:06;12.30;99.90
15554;DHT22;7878;44.632;10.942;2022-12-24T09:05:31;12.30;99.90
15554;DHT22;7878;44.632;10.942;2022-12-24T09:07:57;12.30;99.90
15554;DHT22;7878;44.632;10.942;2022-12-24T09:10:23;12.40;99.90
15554;DHT22;7878;44.632;10.942;2022-12-24T09:12:49;12.40;99.90
15554;DHT22;7878;44.632;10.942;2022-12-24T09:15:15;12.50;99.90
15554;DHT22;7878;44.632;10.942;2022-12-24T09:17:41;12.60;99.90
15554;DHT22;7878;44.632;10.942;2022-12-24T09:20:08;12.60;99.90
15554;DHT22;7878;44.632;10.942;2022-12-24T09:22:36;12.60;99.90
15554;DHT22;7878;44.632;10.942;2022-12-24T09:25:01;12.60;99.90
15554;DHT22;7878;44.632;10.942;2022-12-24T09:27:29;12.60;99.90
15554;DHT22;7878;44.632;10.942;2022-12-24T09:29:55;12.70;99.90
15554;DHT22;7878;44.632;10.942;2022-12-24T09:32:21;12.80;99.90
15554;DHT22;7878;44.632;10.942;2022-12-24T09:34:47;12.80;99.90
15554;DHT22;7878;44.632;10.942;2022-12-24T09:37:12;12.90;99.90
15554;DHT22;7878;44.632;10.942;2022-12-24T09:39:38;12.90;99.90
15554;DHT22;7878;44.632;10.942;2022-12-24T09:42:17;12.90;99.90
15554;DHT22;7878;44.632;10.942;2022-12-24T09:47:40;12.90;99.90
15554;DHT22;7878;44.632;10.942;2022-12-24T09:53:05;13.00;99.90
15554;DHT22;7878;44.632;10.942;2022-12-24T09:55:53;13.10;99.90
15554;DHT22;7878;44.632;10.942;2022-12-24T09:58:26;13.00;99.90
15554;DHT22;7878;44.632;10.942;2022-12-24T10:00:55;13.00;99.90
15554;DHT22;7878;44.632;10.942;2022-12-24T10:03:21;13.00;99.90
15554;DHT22;7878;44.632;10.942;2022-12-24T10:05:50;13.00;99.90
15554;DHT22;7878;44.632;10.942;2022-12-24T10:14:32;13.20;99.90
15554;DHT22;7878;44.632;10.942;2022-12-24T10:17:26;13.30;99.90
15554;DHT22;7878;44.632;10.942;2022-12-24T10:19:50;13.30;99.90
15554;DHT22;7878;44.632;10.942;2022-12-24T10:25:19;13.30;99.90
15554;DHT22;7878;44.632;10.942;2022-12-24T10:27:42;13.30;99.90
15554;DHT22;7878;44.632;10.942;2022-12-24T10:30:14;13.30;99.90
15554;DHT22;7878;44.632;10.942;2022-12-24T10:32:41;13.30;99.90
15554;DHT22;7878;44.632;10.942;2022-12-24T10:37:46;13.30;99.90
15554;DHT22;7878;44.632;10.942;2022-12-24T10:42:45;13.20;99.90
15554;DHT22;7878;44.632;10.942;2022-12-24T10:45:16;13.20;99.90
15554;DHT22;7878;44.632;10.942;2022-12-24T10:47:44;13.20;99.90
15554;DHT22;7878;44.632;10.942;2022-12-24T10:50:18;13.30;99.90
15554;DHT22;7878;44.632;10.942;2022-12-24T10:52:47;13.30;99.90
15554;DHT22;7878;44.632;10.942;2022-12-24T10:57:42;13.40;99.90
15554;DHT22;7878;44.632;10.942;2022-12-24T11:00:23;13.40;99.90
15554;DHT22;7878;44.632;10.942;2022-12-24T11:03:04;13.40;99.90
15554;DHT22;7878;44.632;10.942;2022-12-24T11:05:39;13.30;99.90
15554;DHT22;7878;44.632;10.942;2022-12-24T11:10:41;13.20;99.90
15554;DHT22;7878;44.632;10.942;2022-12-24T11:15:51;13.20;99.90
15554;DHT22;7878;44.632;10.942;2022-12-24T11:18:23;13.20;99.90
15554;DHT22;7878;44.632;10.942;2022-12-24T11:20:51;13.30;99.90
15554;DHT22;7878;44.632;10.942;2022-12-24T11:23:17;13.30;99.90
15554;DHT22;7878;44.632;10.942;2022-12-24T11:25:49;13.30;99.90
15554;DHT22;7878;44.632;10.942;2022-12-24T11:31:04;13.30;99.90
15554;DHT22;7878;44.632;10.942;2022-12-24T11:33:32;13.30;99.90
15554;DHT22;7878;44.632;10.942;2022-12-24T11:36:12;13.30;99.90
15554;DHT22;7878;44.632;10.942;2022-12-24T11:38:38;13.30;99.90
15554;DHT22;7878;44.632;10.942;2022-12-24T11:41:06;13.30;99.90
15554;DHT22;7878;44.632;10.942;2022-12-24T11:43:50;13.30;99.90
15554;DHT22;7878;44.632;10.942;2022-12-24T11:46:42;13.30;99.90
15554;DHT22;7878;44.632;10.942;2022-12-24T11:51:40;13.30;99.90
15554;DHT22;7878;44.632;10.942;2022-12-24T11:54:30;13.30;99.90
15554;DHT22;7878;44.632;10.942;2022-12-24T11:57:00;13.40;99.90
15554;DHT22;7878;44.632;10.942;2022-12-24T11:59:34;13.40;99.90
15554;DHT22;7878;44.632;10.942;2022-12-24T12:04:32;13.40;99.90
15554;DHT22;7878;44.632;10.942;2022-12-24T12:07:09;13.40;99.90
15554;DHT22;7878;44.632;10.942;2022-12-24T12:12:35;13.40;99.90
15554;DHT22;7878;44.632;10.942;2022-12-24T12:15:27;13.40;99.90
15554;DHT22;7878;44.632;10.942;2022-12-24T12:18:02;13.30;99.90
15554;DHT22;7878;44.632;10.942;2022-12-24T12:20:31;13.30;99.90
15554;DHT22;7878;44.632;10.942;2022-12-24T12:23:27;13.30;99.90
15554;DHT22;7878;44.632;10.942;2022-12-24T12:28:45;13.30;99.90
15554;DHT22;7878;44.632;10.942;2022-12-24T12:36:51;13.30;99.90
15554;DHT22;7878;44.632;10.942;2022-12-24T12:39:18;13.30;99.90
15554;DHT22;7878;44.632;10.942;2022-12-24T12:41:49;13.40;99.90
15554;DHT22;7878;44.632;10.942;2022-12-24T12:47:27;13.20;99.90
15554;DHT22;7878;44.632;10.942;2022-12-24T12:50:06;13.20;99.90
15554;DHT22;7878;44.632;10.942;2022-12-24T12:53:02;13.20;99.90
15554;DHT22;7878;44.632;10.942;2022-12-24T12:55:38;13.20;99.90
15554;DHT22;7878;44.632;10.942;2022-12-24T12:58:19;13.10;99.90
15554;DHT22;7878;44.632;10.942;2022-12-24T13:00:51;13.10;99.90
15554;DHT22;7878;44.632;10.942;2022-12-24T13:14:51;13.20;99.90
15554;DHT22;7878;44.632;10.942;2022-12-24T13:23:12;13.20;99.90
15554;DHT22;7878;44.632;10.942;2022-12-24T13:25:53;13.00;99.90
15554;DHT22;7878;44.632;10.942;2022-12-24T13:30:46;12.90;99.90
15554;DHT22;7878;44.632;10.942;2022-12-24T13:40:54;12.90;99.90
15554;DHT22;7878;44.632;10.942;2022-12-24T13:43:20;12.90;99.90
15554;DHT22;7878;44.632;10.942;2022-12-24T13:45:48;12.90;99.90
15554;DHT22;7878;44.632;10.942;2022-12-24T13:48:26;12.80;99.90
15554;DHT22;7878;44.632;10.942;2022-12-24T13:50:54;12.80;99.90
15554;DHT22;7878;44.632;10.942;2022-12-24T13:53:43;12.80;99.90
15554;DHT22;7878;44.632;10.942;2022-12-24T13:58:54;12.80;99.90
15554;DHT22;7878;44.632;10.942;2022-12-24T14:01:35;12.80;99.90
15554;DHT22;7878;44.632;10.942;2022-12-24T14:04:04;12.90;99.90
15554;DHT22;7878;44.632;10.942;2022-12-24T14:06:35;12.90;99.90
15554;DHT22;7878;44.632;10.942;2022-12-24T14:09:17;12.90;99.90
15554;DHT22;7878;44.632;10.942;2022-12-24T14:17:00;12.90;99.90
15554;DHT22;7878;44.632;10.942;2022-12-24T14:19:39;12.90;99.90
15554;DHT22;7878;44.632;10.942;2022-12-24T14:22:33;12.90;99.90
15554;DHT22;7878;44.632;10.942;2022-12-24T14:27:44;12.90;99.90
15554;DHT22;7878;44.632;10.942;2022-12-24T14:30:20;13.00;99.90
15554;DHT22;7878;44.632;10.942;2022-12-24T14:32:48;12.90;99.90
15554;DHT22;7878;44.632;10.942;2022-12-24T14:35:29;13.00;99.90
15554;DHT22;7878;44.632;10.942;2022-12-24T14:38:07;12.90;99.90
15554;DHT22;7878;44.632;10.942;2022-12-24T14:40:42;12.90;99.90
15554;DHT22;7878;44.632;10.942;2022-12-24T14:43:22;12.90;99.90
15554;DHT22;7878;44.632;10.942;2022-12-24T14:46:14;12.90;99.90
15554;DHT22;7878;44.632;10.942;2022-12-24T14:48:52;12.90;99.90
15554;DHT22;7878;44.632;10.942;2022-12-24T14:54:16;12.90;99.90
15554;DHT22;7878;44.632;10.942;2022-12-24T14:56:44;12.80;99.90
15554;DHT22;7878;44.632;10.942;2022-12-24T14:59:17;12.80;99.90
15554;DHT22;7878;44.632;10.942;2022-12-24T15:01:44;12.80;99.90
15554;DHT22;7878;44.632;10.942;2022-12-24T15:06:48;12.80;99.90
15554;DHT22;7878;44.632;10.942;2022-12-24T15:09:31;12.80;99.90
15554;DHT22;7878;44.632;10.942;2022-12-24T15:12:01;12.80;99.90
15554;DHT22;7878;44.632;10.942;2022-12-24T15:14:31;12.80;99.90
15554;DHT22;7878;44.632;10.942;2022-12-24T15:17:02;12.80;99.90
15554;DHT22;7878;44.632;10.942;2022-12-24T15:19:38;12.80;99.90
15554;DHT22;7878;44.632;10.942;2022-12-24T15:22:28;12.80;99.90
15554;DHT22;7878;44.632;10.942;2022-12-24T15:24:54;12.80;99.90
15554;DHT22;7878;44.632;10.942;2022-12-24T15:27:22;12.80;99.90
15554;DHT22;7878;44.632;10.942;2022-12-24T15:29:51;12.80;99.90
15554;DHT22;7878;44.632;10.942;2022-12-24T15:32:18;12.80;99.90
15554;DHT22;7878;44.632;10.942;2022-12-24T15:34:46;12.70;99.90
15554;DHT22;7878;44.632;10.942;2022-12-24T15:37:19;12.70;99.90
15554;DHT22;7878;44.632;10.942;2022-12-24T15:39:57;12.70;99.90
15554;DHT22;7878;44.632;10.942;2022-12-24T15:42:23;12.70;99.90
15554;DHT22;7878;44.632;10.942;2022-12-24T15:44:57;12.70;99.90
15554;DHT22;7878;44.632;10.942;2022-12-24T15:47:31;12.70;99.90
15554;DHT22;7878;44.632;10.942;2022-12-24T15:50:30;12.70;99.90
15554;DHT22;7878;44.632;10.942;2022-12-24T15:53:01;12.70;99.90
15554;DHT22;7878;44.632;10.942;2022-12-24T15:55:35;12.70;99.90
15554;DHT22;7878;44.632;10.942;2022-12-24T15:58:16;12.60;99.90
15554;DHT22;7878;44.632;10.942;2022-12-24T16:00:43;12.70;99.90
15554;DHT22;7878;44.632;10.942;2022-12-24T16:05:37;12.70;99.90
15554;DHT22;7878;44.632;10.942;2022-12-24T16:10:50;12.70;99.90
15554;DHT22;7878;44.632;10.942;2022-12-24T16:13:23;12.70;99.90
15554;DHT22;7878;44.632;10.942;2022-12-24T16:16:03;12.70;99.90
15554;DHT22;7878;44.632;10.942;2022-12-24T16:18:39;12.60;99.90
15554;DHT22;7878;44.632;10.942;2022-12-24T16:21:06;12.60;99.90
15554;DHT22;7878;44.632;10.942;2022-12-24T16:23:38;12.60;99.90
15554;DHT22;7878;44.632;10.942;2022-12-24T16:26:09;12.60;99.90
15554;DHT22;7878;44.632;10.942;2022-12-24T16:28:35;12.60;99.90
15554;DHT22;7878;44.632;10.942;2022-12-24T16:31:01;12.60;99.90
15554;DHT22;7878;44.632;10.942;2022-12-24T16:33:26;12.60;99.90
15554;DHT22;7878;44.632;10.942;2022-12-24T16:35:53;12.60;99.90
15554;DHT22;7878;44.632;10.942;2022-12-24T16:38:19;12.60;99.90
15554;DHT22;7878;44.632;10.942;2022-12-24T16:40:45;12.60;99.90
15554;DHT22;7878;44.632;10.942;2022-12-24T16:43:11;12.60;99.90
15554;DHT22;7878;44.632;10.942;2022-12-24T16:46:01;12.60;99.90
15554;DHT22;7878;44.632;10.942;2022-12-24T16:48:28;12.50;99.90
15554;DHT22;7878;44.632;10.942;2022-12-24T16:50:54;12.60;99.90
15554;DHT22;7878;44.632;10.942;2022-12-24T16:53:20;12.50;99.90
15554;DHT22;7878;44.632;10.942;2022-12-24T16:55:46;12.50;99.90
15554;DHT22;7878;44.632;10.942;2022-12-24T16:58:15;12.50;99.90
15554;DHT22;7878;44.632;10.942;2022-12-24T17:00:41;12.50;99.90
15554;DHT22;7878;44.632;10.942;2022-12-24T17:03:07;12.50;99.90
15554;DHT22;7878;44.632;10.942;2022-12-24T17:05:37;12.40;99.90
15554;DHT22;7878;44.632;10.942;2022-12-24T17:08:03;12.50;99.90
15554;DHT22;7878;44.632;10.942;2022-12-24T17:10:28;12.40;99.90
15554;DHT22;7878;44.632;10.942;2022-12-24T17:12:54;12.40;99.90
15554;DHT22;7878;44.632;10.942;2022-12-24T17:15:20;12.40;99.90
15554;DHT22;7878;44.632;10.942;2022-12-24T17:17:45;12.30;99.90
15554;DHT22;7878;44.632;10.942;2022-12-24T17:20:11;12.30;99.90
15554;DHT22;7878;44.632;10.942;2022-12-24T17:22:38;12.20;99.90
15554;DHT22;7878;44.632;10.942;2022-12-24T17:25:05;12.20;99.90
15554;DHT22;7878;44.632;10.942;2022-12-24T17:27:31;12.10;99.90
15554;DHT22;7878;44.632;10.942;2022-12-24T17:29:56;12.10;99.90
15554;DHT22;7878;44.632;10.942;2022-12-24T17:32:23;12.10;99.90
15554;DHT22;7878;44.632;10.942;2022-12-24T17:34:49;12.10;99.90
15554;DHT22;7878;44.632;10.942;2022-12-24T17:37:15;12.20;99.90
15554;DHT22;7878;44.632;10.942;2022-12-24T17:39:40;12.10;99.90
15554;DHT22;7878;44.632;10.942;2022-12-24T17:42:06;12.20;99.90
15554;DHT22;7878;44.632;10.942;2022-12-24T17:44:32;12.10;99.90
15554;DHT22;7878;44.632;10.942;2022-12-24T17:46:58;12.10;99.90